createdAt,value
2022-11-05T00:00:09.685Z,39.53
2022-11-05T00:02:55.138Z,39.63
2022-11-05T00:05:40.561Z,48.40
2022-11-05T00:08:26.091Z,48.17
2022-11-05T00:10:52.714Z,39.10
2022-11-05T00:13:37.878Z,41.13
2022-11-05T00:16:23.210Z,37.03
2022-11-05T00:19:06.335Z,32.37
2022-11-05T00:21:56.858Z,38.93
2022-11-05T00:24:42.746Z,31.87
2022-11-05T00:27:10.106Z,35.63
2022-11-05T00:29:37.050Z,33.00
2022-11-05T00:32:03.935Z,31.47
2022-11-05T00:34:30.548Z,39.97
2022-11-05T00:36:57.175Z,26.63
2022-11-05T00:39:23.783Z,35.63
2022-11-05T00:42:10.611Z,34.30
2022-11-05T00:44:56.182Z,31.87
2022-11-05T00:47:41.675Z,32.90
2022-11-05T00:50:10.495Z,30.30
2022-11-05T00:52:55.851Z,27.80
2022-11-05T00:55:24.217Z,27.17
2022-11-05T00:57:51.119Z,24.53
2022-11-05T01:00:18.232Z,25.63
2022-11-05T01:02:45.175Z,24.47
2022-11-05T01:05:12.552Z,25.07
2022-11-05T01:07:39.229Z,26.00
2022-11-05T01:10:06.371Z,55.37
2022-11-05T01:12:33.213Z,49.33
2022-11-05T01:15:01.108Z,37.13
2022-11-05T01:17:27.789Z,34.80
2022-11-05T01:19:54.469Z,42.80
2022-11-05T01:22:21.776Z,409.80
2022-11-05T01:24:48.397Z,182.60
2022-11-05T01:27:14.994Z,129.67
2022-11-05T01:29:42.207Z,100.80
2022-11-05T01:32:08.823Z,76.70
2022-11-05T01:34:35.478Z,291.47
2022-11-05T01:37:02.143Z,113.17
2022-11-05T01:39:28.747Z,223.67
2022-11-05T01:41:55.363Z,121.40
2022-11-05T01:44:55.227Z,75.37
2022-11-05T01:47:52.058Z,68.60
2022-11-05T01:50:21.714Z,81.17
2022-11-05T01:52:52.024Z,88.70
2022-11-05T01:55:23.658Z,98.77
2022-11-05T01:57:51.372Z,96.10
2022-11-05T02:00:18.339Z,89.63
2022-11-05T02:02:45.625Z,92.50
2022-11-05T02:05:14.080Z,102.47
2022-11-05T02:07:43.290Z,92.53
2022-11-05T02:10:17.898Z,119.40
2022-11-05T02:12:48.281Z,103.23
2022-11-05T02:15:19.213Z,102.73
2022-11-05T02:18:08.398Z,101.63
2022-11-05T02:21:13.335Z,98.80
2022-11-05T02:24:01.484Z,97.03
2022-11-05T02:26:40.232Z,92.83
2022-11-05T02:29:39.170Z,81.60
2022-11-05T02:32:19.820Z,82.67
2022-11-05T02:35:27.324Z,82.10
2022-11-05T02:38:01.347Z,82.37
2022-11-05T02:40:40.853Z,78.30
2022-11-05T02:43:16.449Z,73.33
2022-11-05T02:46:03.368Z,83.60
2022-11-05T02:48:52.187Z,83.90
2022-11-05T02:51:35.061Z,109.33
2022-11-05T02:54:25.966Z,98.37
2022-11-05T02:56:55.413Z,103.37
2022-11-05T02:59:22.084Z,99.47
2022-11-05T03:01:49.220Z,113.37
2022-11-05T03:04:19.170Z,108.27
2022-11-05T03:07:30.147Z,100.77
2022-11-05T03:09:56.745Z,110.03
2022-11-05T03:12:50.146Z,102.93
2022-11-05T03:15:27.216Z,109.57
2022-11-05T03:18:20.382Z,116.80
2022-11-05T03:21:01.935Z,105.43
2022-11-05T03:24:07.942Z,106.97
2022-11-05T03:26:47.587Z,101.27
2022-11-05T03:29:30.101Z,105.07
2022-11-05T03:31:59.618Z,96.67
2022-11-05T03:34:32.262Z,88.63
2022-11-05T03:37:01.518Z,83.10
2022-11-05T03:39:40.614Z,78.93
2022-11-05T03:42:11.490Z,88.20
2022-11-05T03:44:42.352Z,81.17
2022-11-05T03:47:15.532Z,82.47
2022-11-05T03:49:59.311Z,75.87
2022-11-05T03:52:29.828Z,84.80
2022-11-05T03:54:56.721Z,75.57
2022-11-05T03:57:29.303Z,69.70
2022-11-05T03:59:56.109Z,72.23
2022-11-05T04:02:25.521Z,74.90
2022-11-05T04:04:53.974Z,73.27
2022-11-05T04:07:39.153Z,76.57
2022-11-05T04:10:24.387Z,76.90
2022-11-05T04:13:10.108Z,83.17
2022-11-05T04:15:57.334Z,79.87
2022-11-05T04:18:23.932Z,75.30
2022-11-05T04:21:09.125Z,72.53
2022-11-05T04:23:54.679Z,79.53
2022-11-05T04:26:23.197Z,76.87
2022-11-05T04:29:11.723Z,78.77
2022-11-05T04:31:38.613Z,80.20
2022-11-05T04:34:05.752Z,90.07
2022-11-05T04:36:32.365Z,71.47
2022-11-05T04:38:58.978Z,69.93
2022-11-05T04:41:25.661Z,74.00
2022-11-05T04:43:52.397Z,64.73
2022-11-05T04:46:19.041Z,66.73
2022-11-05T04:48:45.678Z,61.47
2022-11-05T04:51:12.333Z,55.20
2022-11-05T04:53:38.922Z,94.63
2022-11-05T04:56:14.760Z,80.70
2022-11-05T04:58:42.186Z,112.23
2022-11-05T05:01:16.625Z,83.73
2022-11-05T05:03:43.707Z,120.57
2022-11-05T05:06:10.758Z,91.00
2022-11-05T05:08:37.406Z,332.10
2022-11-05T05:11:06.222Z,337.67
2022-11-05T05:13:32.868Z,428.10
2022-11-05T05:15:59.621Z,508.50
2022-11-05T05:18:26.772Z,234.50
2022-11-05T05:21:18.040Z,277.97
2022-11-05T05:23:46.331Z,650.07
2022-11-05T05:26:12.947Z,829.60
2022-11-05T05:28:39.594Z,745.60
2022-11-05T05:31:06.446Z,378.53
2022-11-05T05:33:33.135Z,927.97
2022-11-05T05:36:00.253Z,608.83
2022-11-05T05:38:27.479Z,315.27
2022-11-05T05:40:58.331Z,967.83
2022-11-05T05:43:26.058Z,348.97
2022-11-05T05:45:52.750Z,386.03
2022-11-05T05:48:19.342Z,137.53
2022-11-05T05:50:45.953Z,396.90
2022-11-05T05:53:12.832Z,413.23
2022-11-05T05:55:39.594Z,280.83
2022-11-05T05:58:06.199Z,386.80
2022-11-05T06:00:32.791Z,83.33
2022-11-05T06:02:59.424Z,252.87
2022-11-05T06:05:26.093Z,101.50
2022-11-05T06:07:57.072Z,204.53
2022-11-05T06:10:24.664Z,233.63
2022-11-05T06:12:51.567Z,132.50
2022-11-05T06:15:18.214Z,102.03
2022-11-05T06:17:45.062Z,132.43
2022-11-05T06:20:12.912Z,132.27
2022-11-05T06:22:40.146Z,136.43
2022-11-05T06:25:08.010Z,199.50
2022-11-05T06:27:36.642Z,63.53
2022-11-05T06:30:05.013Z,133.03
2022-11-05T06:32:31.709Z,60.50
2022-11-05T06:34:58.404Z,62.13
2022-11-05T06:37:25.313Z,106.93
2022-11-05T06:39:51.958Z,69.93
2022-11-05T06:42:19.422Z,116.23
2022-11-05T06:44:46.468Z,47.67
2022-11-05T06:47:13.083Z,58.83
2022-11-05T06:49:39.701Z,52.60
2022-11-05T06:52:06.313Z,69.00
2022-11-05T06:54:32.906Z,90.00
2022-11-05T06:56:59.529Z,48.70
2022-11-05T06:59:26.127Z,145.20
2022-11-05T07:01:52.736Z,41.87
2022-11-05T07:04:19.321Z,146.97
2022-11-05T07:06:45.916Z,77.37
2022-11-05T07:09:12.599Z,141.03
2022-11-05T07:11:39.269Z,84.43
2022-11-05T07:14:05.874Z,137.23
2022-11-05T07:16:32.584Z,53.03
2022-11-05T07:18:59.271Z,75.80
2022-11-05T07:21:25.895Z,73.53
2022-11-05T07:23:52.481Z,106.47
2022-11-05T07:26:19.131Z,56.50
2022-11-05T07:28:45.747Z,49.23
2022-11-05T07:31:12.369Z,80.03
2022-11-05T07:33:39.119Z,88.23
2022-11-05T07:36:06.098Z,127.90
2022-11-05T07:38:32.773Z,51.90
2022-11-05T07:41:00.285Z,67.20
2022-11-05T07:43:26.884Z,61.97
2022-11-05T07:45:53.568Z,44.33
2022-11-05T07:48:20.171Z,43.00
2022-11-05T07:50:46.789Z,43.07
2022-11-05T07:53:15.002Z,49.50
2022-11-05T07:55:42.562Z,42.73
2022-11-05T07:58:10.324Z,38.47
2022-11-05T08:00:37.044Z,37.20
2022-11-05T08:03:08.895Z,39.07
2022-11-05T08:05:43.215Z,36.50
2022-11-05T08:08:10.716Z,44.40
2022-11-05T08:10:38.241Z,40.67
2022-11-05T08:13:06.171Z,32.87
2022-11-05T08:15:34.177Z,36.40
2022-11-05T08:18:03.118Z,37.07
2022-11-05T08:20:30.180Z,39.90
2022-11-05T08:22:57.467Z,34.87
2022-11-05T08:25:24.467Z,32.47
2022-11-05T08:27:59.544Z,37.80
2022-11-05T08:30:26.210Z,37.07
2022-11-05T08:32:58.155Z,33.63
2022-11-05T08:35:25.323Z,37.77
2022-11-05T08:37:57.393Z,36.50
2022-11-05T08:40:24.085Z,35.53
2022-11-05T08:42:50.706Z,38.53
2022-11-05T08:45:17.345Z,38.57
2022-11-05T08:47:43.989Z,41.17
2022-11-05T08:50:10.665Z,36.60
2022-11-05T08:52:40.217Z,33.47
2022-11-05T08:55:07.260Z,38.87
2022-11-05T08:57:33.953Z,36.80
2022-11-05T09:00:00.553Z,37.77
2022-11-05T09:02:27.211Z,35.47
2022-11-05T09:04:53.886Z,43.87
2022-11-05T09:07:22.764Z,36.13
2022-11-05T09:09:49.495Z,35.80
2022-11-05T09:12:16.218Z,37.50
2022-11-05T09:14:42.898Z,39.57
2022-11-05T09:17:20.967Z,39.07
2022-11-05T09:19:47.990Z,33.80
2022-11-05T09:22:15.003Z,33.47
2022-11-05T09:24:43.478Z,38.30
2022-11-05T09:27:11.849Z,37.20
2022-11-05T09:29:39.082Z,37.67
2022-11-05T09:32:06.478Z,34.97
2022-11-05T09:34:33.170Z,36.57
2022-11-05T09:37:00.013Z,32.07
2022-11-05T09:39:27.201Z,38.40
2022-11-05T09:42:04.549Z,34.13
2022-11-05T09:44:43.165Z,37.97
2022-11-05T09:47:20.257Z,34.77
2022-11-05T09:49:51.632Z,28.87
2022-11-05T09:52:24.108Z,36.63
2022-11-05T09:54:51.553Z,24.50
2022-11-05T09:57:43.731Z,28.60
2022-11-05T10:00:16.485Z,26.50
2022-11-05T10:02:48.010Z,27.43
2022-11-05T10:05:14.893Z,23.13
2022-11-05T10:07:54.570Z,24.27
2022-11-05T10:10:45.299Z,17.90
2022-11-05T10:13:25.212Z,23.73
2022-11-05T10:16:15.455Z,19.17
2022-11-05T10:18:47.756Z,22.40
2022-11-05T10:21:32.253Z,19.57
2022-11-05T10:23:59.450Z,18.37
2022-11-05T10:26:27.879Z,20.07
2022-11-05T10:28:55.498Z,15.97
2022-11-05T10:31:23.320Z,15.87
2022-11-05T10:34:06.418Z,17.03
2022-11-05T10:36:37.781Z,14.97
2022-11-05T10:39:14.639Z,14.60
2022-11-05T10:41:47.284Z,18.17
2022-11-05T10:44:18.659Z,13.83
2022-11-05T10:47:13.713Z,11.67
2022-11-05T10:50:00.295Z,14.47
2022-11-05T10:52:39.788Z,13.10
2022-11-05T10:55:34.282Z,14.07
2022-11-05T10:58:15.939Z,12.87
2022-11-05T11:00:44.580Z,14.47
2022-11-05T11:03:31.217Z,11.73
2022-11-05T11:06:26.087Z,15.70
2022-11-05T11:08:55.666Z,13.40
2022-11-05T11:12:00.357Z,13.23
2022-11-05T11:14:27.348Z,14.90
2022-11-05T11:16:57.617Z,15.70
2022-11-05T11:19:30.320Z,14.70
2022-11-05T11:22:05.869Z,11.00
2022-11-05T11:24:40.722Z,18.30
2022-11-05T11:27:28.941Z,13.70
2022-11-05T11:29:59.025Z,13.37
2022-11-05T11:32:35.201Z,12.10
2022-11-05T11:35:03.091Z,13.93
2022-11-05T11:37:34.433Z,9.40
2022-11-05T11:40:12.986Z,16.43
2022-11-05T11:42:41.724Z,12.57
2022-11-05T11:45:18.781Z,9.37
2022-11-05T11:47:48.689Z,14.80
2022-11-05T11:50:40.979Z,9.53
2022-11-05T11:53:33.146Z,10.13
2022-11-05T11:56:15.951Z,11.40
2022-11-05T11:58:45.760Z,9.60
2022-11-05T12:01:34.690Z,10.50
2022-11-05T12:04:38.883Z,8.43
2022-11-05T12:07:27.396Z,15.17
2022-11-05T12:10:14.987Z,8.03
2022-11-05T12:12:41.559Z,10.67
2022-11-05T12:15:38.809Z,6.60
2022-11-05T12:18:13.119Z,9.40
2022-11-05T12:21:04.451Z,11.23
2022-11-05T12:24:02.322Z,7.37
2022-11-05T12:26:56.017Z,6.67
2022-11-05T12:29:34.435Z,5.40
2022-11-05T12:32:39.823Z,7.43
2022-11-05T12:35:47.050Z,9.23
2022-11-05T12:38:45.093Z,19.73
2022-11-05T12:41:18.239Z,6.90
2022-11-05T12:43:53.729Z,5.67
2022-11-05T12:46:36.024Z,5.30
2022-11-05T12:49:25.810Z,8.03
2022-11-05T12:52:21.747Z,5.47
2022-11-05T12:54:58.430Z,4.43
2022-11-05T12:57:27.748Z,5.30
2022-11-05T13:00:08.465Z,5.87
2022-11-05T13:03:15.482Z,4.83
2022-11-05T13:05:48.185Z,4.80
2022-11-05T13:08:42.993Z,5.40
2022-11-05T13:11:25.948Z,4.33
2022-11-05T13:14:09.909Z,5.80
2022-11-05T13:16:40.517Z,5.90
2022-11-05T13:19:19.086Z,4.87
2022-11-05T13:21:52.168Z,3.20
2022-11-05T13:24:26.694Z,7.90
2022-11-05T13:27:16.217Z,6.30
2022-11-05T13:29:49.131Z,6.03
2022-11-05T13:32:29.079Z,7.77
2022-11-05T13:34:56.844Z,6.20
2022-11-05T13:37:46.361Z,8.37
2022-11-05T13:40:18.770Z,5.60
2022-11-05T13:42:56.616Z,6.20
2022-11-05T13:45:45.168Z,5.83
2022-11-05T13:48:47.985Z,3.47
2022-11-05T13:51:23.562Z,4.47
2022-11-05T13:54:37.118Z,6.87
2022-11-05T13:57:15.649Z,5.90
2022-11-05T14:00:12.575Z,3.80
2022-11-05T14:02:43.894Z,5.10
2022-11-05T14:05:25.370Z,4.10
2022-11-05T14:07:53.292Z,2.90
2022-11-05T14:10:42.875Z,7.33
2022-11-05T14:13:32.507Z,5.20
2022-11-05T14:16:06.982Z,3.93
2022-11-05T14:18:53.821Z,3.47
2022-11-05T14:21:26.464Z,3.90
2022-11-05T14:24:17.785Z,7.93
2022-11-05T14:26:44.421Z,5.80
2022-11-05T14:29:10.983Z,3.23
2022-11-05T14:32:09.346Z,5.23
2022-11-05T14:35:01.866Z,5.57
2022-11-05T14:37:32.079Z,5.33
2022-11-05T14:40:25.947Z,6.77
2022-11-05T14:42:55.487Z,5.53
2022-11-05T14:45:40.557Z,4.53
2022-11-05T14:48:49.692Z,6.30
2022-11-05T14:51:38.260Z,6.03
2022-11-05T14:54:15.006Z,4.23
2022-11-05T14:56:43.350Z,3.43
2022-11-05T14:59:25.006Z,7.03
2022-11-05T15:01:57.358Z,5.70
2022-11-05T15:04:29.801Z,4.70
2022-11-05T15:07:02.705Z,3.63
2022-11-05T15:09:54.564Z,3.70
2022-11-05T15:12:38.486Z,5.13
2022-11-05T15:15:22.024Z,3.20
2022-11-05T15:18:02.559Z,4.00
2022-11-05T15:20:40.711Z,4.60
2022-11-05T15:23:12.683Z,4.07
2022-11-05T15:26:01.292Z,8.17
2022-11-05T15:28:36.877Z,4.10
2022-11-05T15:31:19.287Z,5.00
2022-11-05T15:33:47.725Z,3.30
2022-11-05T15:36:27.202Z,4.87
2022-11-05T15:39:22.883Z,3.83
2022-11-05T15:41:41.410Z,3.50
2022-11-05T15:44:28.069Z,4.33
2022-11-05T15:47:30.087Z,6.33
2022-11-05T15:49:59.520Z,4.57
2022-11-05T15:52:34.638Z,4.00
2022-11-05T15:55:17.726Z,5.80
2022-11-05T15:58:04.778Z,8.03
2022-11-05T16:00:36.403Z,5.80
2022-11-05T16:03:05.162Z,3.20
2022-11-05T16:05:35.120Z,6.07
2022-11-05T16:08:04.222Z,5.23
2022-11-05T16:10:36.640Z,5.53
2022-11-05T16:13:33.191Z,4.87
2022-11-05T16:16:05.470Z,6.53
2022-11-05T16:18:38.574Z,5.47
2022-11-05T16:21:08.136Z,6.13
2022-11-05T16:23:57.998Z,4.60
2022-11-05T16:29:38.569Z,5.43
2022-11-05T16:32:30.602Z,7.57
2022-11-05T16:35:01.344Z,5.40
2022-11-05T16:37:35.331Z,2.73
2022-11-05T16:40:03.561Z,6.87
2022-11-05T16:42:33.209Z,5.77
2022-11-05T16:44:59.919Z,4.40
2022-11-05T16:47:26.562Z,7.30
2022-11-05T16:49:53.182Z,7.10
2022-11-05T16:52:19.863Z,6.87
2022-11-05T16:54:46.622Z,4.97
2022-11-05T16:57:29.119Z,6.47
2022-11-05T16:59:57.050Z,6.20
2022-11-05T17:02:23.890Z,5.80
2022-11-05T17:04:50.769Z,7.50
2022-11-05T17:07:17.924Z,6.90
2022-11-05T17:09:44.541Z,8.43
2022-11-05T17:12:11.969Z,7.40
2022-11-05T17:14:38.757Z,5.90
2022-11-05T17:17:06.125Z,6.60
2022-11-05T17:19:33.334Z,5.67
2022-11-05T17:21:59.999Z,6.53
2022-11-05T17:24:26.634Z,6.33
2022-11-05T17:26:53.271Z,6.80
2022-11-05T17:29:19.975Z,5.67
2022-11-05T17:31:46.634Z,7.43
2022-11-05T17:34:13.245Z,6.40
2022-11-05T17:36:39.943Z,7.37
2022-11-05T17:39:06.600Z,5.23
2022-11-05T17:41:33.234Z,8.50
2022-11-05T17:44:00.531Z,6.17
2022-11-05T17:46:27.890Z,6.33
2022-11-05T17:48:54.517Z,6.40
2022-11-05T17:51:21.826Z,5.53
2022-11-05T17:53:49.223Z,5.30
2022-11-05T17:56:27.638Z,7.47
2022-11-05T17:58:55.999Z,7.07
2022-11-05T18:01:31.308Z,8.73
2022-11-05T18:04:00.359Z,7.40
2022-11-05T18:06:31.932Z,8.97
2022-11-05T18:08:58.697Z,7.00
2022-11-05T18:11:25.353Z,10.50
2022-11-05T18:13:51.969Z,8.97
2022-11-05T18:16:18.882Z,8.00
2022-11-05T18:18:45.500Z,9.33
2022-11-05T18:21:12.437Z,10.60
2022-11-05T18:23:39.083Z,8.07
2022-11-05T18:26:14.369Z,9.27
2022-11-05T18:28:41.959Z,9.83
2022-11-05T18:31:17.847Z,8.40
2022-11-05T18:33:45.278Z,9.13
2022-11-05T18:36:19.640Z,12.73
2022-11-05T18:38:46.990Z,13.57
2022-11-05T18:41:14.070Z,8.00
2022-11-05T18:43:40.992Z,8.60
2022-11-05T18:46:08.282Z,10.97
2022-11-05T18:48:35.533Z,8.50
2022-11-05T18:51:11.745Z,10.23
2022-11-05T18:53:39.394Z,11.70
2022-11-05T18:56:17.678Z,10.07
2022-11-05T18:58:44.917Z,16.73
2022-11-05T19:01:21.838Z,13.30
2022-11-05T19:03:50.313Z,9.97
2022-11-05T19:06:17.818Z,16.57
2022-11-05T19:08:44.689Z,12.50
2022-11-05T19:11:17.163Z,16.23
2022-11-05T19:13:44.019Z,11.07
2022-11-05T19:16:16.993Z,12.00
2022-11-05T19:18:44.371Z,13.67
2022-11-05T19:21:17.261Z,15.10
2022-11-05T19:23:43.935Z,12.00
2022-11-05T19:26:28.172Z,12.07
2022-11-05T19:28:56.494Z,13.50
2022-11-05T19:31:23.565Z,11.37
2022-11-05T19:33:51.967Z,13.93
2022-11-05T19:36:20.578Z,13.40
2022-11-05T19:38:52.236Z,14.90
2022-11-05T19:41:19.308Z,11.63
2022-11-05T19:43:46.580Z,12.30
2022-11-05T19:46:19.289Z,13.47
2022-11-05T19:48:46.827Z,13.13
2022-11-05T19:51:17.106Z,13.00
2022-11-05T19:53:44.410Z,11.30
2022-11-05T19:56:14.562Z,15.17
2022-11-05T19:58:41.224Z,13.37
2022-11-05T20:01:09.386Z,12.70
2022-11-05T20:03:37.661Z,18.97
2022-11-05T20:06:16.501Z,15.73
2022-11-05T20:09:07.204Z,11.30
2022-11-05T20:11:31.611Z,13.23
2022-11-05T20:13:58.301Z,17.27
2022-11-05T20:16:27.536Z,15.23
2022-11-05T20:18:54.494Z,14.17
2022-11-05T20:21:21.198Z,14.13
2022-11-05T20:23:48.362Z,16.97
2022-11-05T20:26:15.665Z,12.53
2022-11-05T20:28:43.607Z,13.80
2022-11-05T20:31:12.702Z,12.23
2022-11-05T20:33:40.691Z,14.33
2022-11-05T20:36:15.632Z,16.53
2022-11-05T20:38:42.786Z,19.13
2022-11-05T20:41:12.261Z,14.23
2022-11-05T20:43:42.871Z,13.70
2022-11-05T20:46:15.011Z,14.67
2022-11-05T20:48:42.547Z,17.63
2022-11-05T20:51:14.107Z,14.17
2022-11-05T20:53:41.343Z,13.53
2022-11-05T20:56:09.259Z,12.83
2022-11-05T20:58:40.161Z,13.03
2022-11-05T21:01:07.581Z,14.30
2022-11-05T21:03:34.576Z,15.60
2022-11-05T21:06:04.392Z,16.23
2022-11-05T21:08:31.623Z,13.00
2022-11-05T21:10:58.953Z,18.33
2022-11-05T21:13:26.527Z,14.40
2022-11-05T21:15:55.965Z,16.97
2022-11-05T21:18:24.751Z,20.00
2022-11-05T21:20:51.687Z,14.80
2022-11-05T21:23:18.545Z,15.00
2022-11-05T21:25:45.230Z,17.17
2022-11-05T21:28:13.334Z,19.73
2022-11-05T21:30:41.971Z,15.27
2022-11-05T21:33:09.138Z,14.87
2022-11-05T21:35:43.954Z,15.90
2022-11-05T21:38:12.281Z,18.87
2022-11-05T21:40:39.797Z,14.23
2022-11-05T21:43:07.144Z,19.33
2022-11-05T21:45:34.083Z,21.00
2022-11-05T21:48:00.926Z,15.03
2022-11-05T21:50:45.982Z,14.33
2022-11-05T21:53:33.382Z,17.37
2022-11-05T21:56:18.906Z,15.17
2022-11-05T21:59:04.443Z,14.80
2022-11-05T22:01:31.596Z,15.83
2022-11-05T22:04:02.870Z,21.00
2022-11-05T22:06:32.960Z,16.73
2022-11-05T22:08:59.867Z,14.53
2022-11-05T22:11:26.515Z,15.30
2022-11-05T22:13:53.686Z,20.43
2022-11-05T22:16:20.542Z,13.67
2022-11-05T22:18:47.168Z,13.87
2022-11-05T22:21:19.603Z,13.40
2022-11-05T22:23:46.242Z,15.10
2022-11-05T22:26:13.177Z,13.83
2022-11-05T22:28:39.799Z,22.80
2022-11-05T22:31:16.692Z,12.40
2022-11-05T22:33:44.091Z,15.67
2022-11-05T22:36:11.855Z,16.53
2022-11-05T22:38:39.179Z,16.63
2022-11-05T22:41:11.303Z,18.30
2022-11-05T22:43:38.242Z,15.03
2022-11-05T22:46:06.975Z,14.97
2022-11-05T22:48:35.528Z,17.53
2022-11-05T22:51:06.987Z,15.17
2022-11-05T22:53:35.177Z,16.13
2022-11-05T22:56:06.275Z,16.30
2022-11-05T22:58:33.399Z,15.63
2022-11-05T23:01:00.395Z,15.20
2022-11-05T23:03:28.652Z,16.97
2022-11-05T23:06:02.975Z,17.00
2022-11-05T23:08:48.790Z,16.63
2022-11-05T23:11:35.645Z,15.10
2022-11-05T23:14:02.877Z,19.10
2022-11-05T23:16:48.230Z,15.37
2022-11-05T23:19:33.690Z,20.50
2022-11-05T23:22:19.236Z,15.50
2022-11-05T23:24:47.474Z,18.40
2022-11-05T23:27:14.546Z,15.83
2022-11-05T23:29:41.304Z,18.93
2022-11-05T23:32:27.093Z,18.90
2022-11-05T23:34:56.438Z,14.43
2022-11-05T23:37:57.794Z,19.83
2022-11-05T23:40:28.102Z,19.07
2022-11-05T23:43:13.621Z,16.33
2022-11-05T23:45:47.961Z,15.23
2022-11-05T23:48:33.958Z,20.20
2022-11-05T23:51:07.180Z,13.07
2022-11-05T23:53:37.947Z,14.40
2022-11-05T23:56:10.375Z,14.40
2022-11-05T23:58:38.613Z,13.50
